sensor_id;sensor_type;location;lat;lon;timestamp;temperature;humidity
21184;DHT22;18176;49.502;11.754;2022-10-16T00:02:39;14.50;99.90
21184;DHT22;18176;49.502;11.754;2022-10-16T00:06:42;14.60;99.90
21184;DHT22;18176;49.502;11.754;2022-10-16T00:10:42;14.60;99.90
21184;DHT22;18176;49.502;11.754;2022-10-16T00:14:43;14.60;99.90
21184;DHT22;18176;49.502;11.754;2022-10-16T00:18:43;14.60;99.90
21184;DHT22;18176;49.502;11.754;2022-10-16T00:22:46;14.60;99.90
21184;DHT22;18176;49.502;11.754;2022-10-16T00:26:49;14.60;99.90
21184;DHT22;18176;49.502;11.754;2022-10-16T00:30:50;14.50;99.90
21184;DHT22;18176;49.502;11.754;2022-10-16T00:34:51;14.60;99.90
21184;DHT22;18176;49.502;11.754;2022-10-16T00:38:56;14.50;99.90
21184;DHT22;18176;49.502;11.754;2022-10-16T00:42:59;14.50;99.90
21184;DHT22;18176;49.502;11.754;2022-10-16T00:46:59;14.40;99.90
21184;DHT22;18176;49.502;11.754;2022-10-16T00:50:59;14.40;99.90
21184;DHT22;18176;49.502;11.754;2022-10-16T00:55:04;14.40;99.90
21184;DHT22;18176;49.502;11.754;2022-10-16T00:59:10;14.40;99.90
21184;DHT22;18176;49.502;11.754;2022-10-16T01:03:26;14.40;99.90
21184;DHT22;18176;49.502;11.754;2022-10-16T01:07:36;14.40;99.90
21184;DHT22;18176;49.502;11.754;2022-10-16T01:11:54;14.40;99.90
21184;DHT22;18176;49.502;11.754;2022-10-16T01:16:06;14.30;99.90
21184;DHT22;18176;49.502;11.754;2022-10-16T01:20:20;14.30;99.90
21184;DHT22;18176;49.502;11.754;2022-10-16T01:24:32;14.30;99.90
21184;DHT22;18176;49.502;11.754;2022-10-16T01:28:45;14.30;99.90
21184;DHT22;18176;49.502;11.754;2022-10-16T01:32:52;14.30;99.90
21184;DHT22;18176;49.502;11.754;2022-10-16T01:37:02;14.30;99.90
21184;DHT22;18176;49.502;11.754;2022-10-16T01:41:08;14.20;99.90
21184;DHT22;18176;49.502;11.754;2022-10-16T01:45:17;14.20;99.90
21184;DHT22;18176;49.502;11.754;2022-10-16T01:49:20;14.20;99.90
21184;DHT22;18176;49.502;11.754;2022-10-16T01:53:23;14.20;99.90
21184;DHT22;18176;49.502;11.754;2022-10-16T01:57:26;14.10;99.90
21184;DHT22;18176;49.502;11.754;2022-10-16T02:01:33;14.10;99.90
21184;DHT22;18176;49.502;11.754;2022-10-16T02:05:40;14.10;99.90
21184;DHT22;18176;49.502;11.754;2022-10-16T02:09:45;14.00;99.90
21184;DHT22;18176;49.502;11.754;2022-10-16T02:13:48;14.00;99.90
21184;DHT22;18176;49.502;11.754;2022-10-16T02:17:55;14.00;99.90
21184;DHT22;18176;49.502;11.754;2022-10-16T02:21:58;14.00;99.90
21184;DHT22;18176;49.502;11.754;2022-10-16T02:26:05;14.00;99.90
21184;DHT22;18176;49.502;11.754;2022-10-16T02:30:11;14.00;99.90
21184;DHT22;18176;49.502;11.754;2022-10-16T02:34:18;14.10;99.90
21184;DHT22;18176;49.502;11.754;2022-10-16T02:38:23;14.10;99.90
21184;DHT22;18176;49.502;11.754;2022-10-16T02:42:33;14.10;99.90
21184;DHT22;18176;49.502;11.754;2022-10-16T02:46:34;14.10;99.90
21184;DHT22;18176;49.502;11.754;2022-10-16T02:50:37;14.10;99.90
21184;DHT22;18176;49.502;11.754;2022-10-16T02:54:37;14.10;99.90
21184;DHT22;18176;49.502;11.754;2022-10-16T02:58:37;14.10;99.90
21184;DHT22;18176;49.502;11.754;2022-10-16T03:02:37;14.20;99.90
21184;DHT22;18176;49.502;11.754;2022-10-16T03:06:40;14.20;99.90
21184;DHT22;18176;49.502;11.754;2022-10-16T03:10:41;14.20;99.90
21184;DHT22;18176;49.502;11.754;2022-10-16T03:14:41;14.20;99.90
21184;DHT22;18176;49.502;11.754;2022-10-16T03:18:41;14.30;99.90
21184;DHT22;18176;49.502;11.754;2022-10-16T03:22:44;14.30;99.90
21184;DHT22;18176;49.502;11.754;2022-10-16T03:26:48;14.20;99.90
21184;DHT22;18176;49.502;11.754;2022-10-16T03:30:48;14.20;99.90
21184;DHT22;18176;49.502;11.754;2022-10-16T03:34:48;14.20;99.90
21184;DHT22;18176;49.502;11.754;2022-10-16T03:38:52;14.20;99.90
21184;DHT22;18176;49.502;11.754;2022-10-16T03:42:52;14.20;99.90
21184;DHT22;18176;49.502;11.754;2022-10-16T03:46:54;14.20;99.90
21184;DHT22;18176;49.502;11.754;2022-10-16T03:50:54;14.20;99.90
21184;DHT22;18176;49.502;11.754;2022-10-16T03:54:57;14.20;99.90
21184;DHT22;18176;49.502;11.754;2022-10-16T03:58:57;14.20;99.90
21184;DHT22;18176;49.502;11.754;2022-10-16T04:02:57;14.20;99.90
21184;DHT22;18176;49.502;11.754;2022-10-16T04:06:57;14.20;99.90
21184;DHT22;18176;49.502;11.754;2022-10-16T04:11:00;14.20;99.90
21184;DHT22;18176;49.502;11.754;2022-10-16T04:15:00;14.20;99.90
21184;DHT22;18176;49.502;11.754;2022-10-16T04:19:01;14.20;99.90
21184;DHT22;18176;49.502;11.754;2022-10-16T04:23:01;14.20;99.90
21184;DHT22;18176;49.502;11.754;2022-10-16T04:27:04;14.20;99.90
21184;DHT22;18176;49.502;11.754;2022-10-16T04:31:05;14.10;99.90
21184;DHT22;18176;49.502;11.754;2022-10-16T04:35:07;14.10;99.90
21184;DHT22;18176;49.502;11.754;2022-10-16T04:39:08;14.10;99.90
21184;DHT22;18176;49.502;11.754;2022-10-16T04:43:11;14.10;99.90
21184;DHT22;18176;49.502;11.754;2022-10-16T04:47:12;14.10;99.90
21184;DHT22;18176;49.502;11.754;2022-10-16T04:51:12;14.00;99.90
21184;DHT22;18176;49.502;11.754;2022-10-16T04:55:13;14.00;99.90
21184;DHT22;18176;49.502;11.754;2022-10-16T04:59:16;14.00;99.90
21184;DHT22;18176;49.502;11.754;2022-10-16T05:03:17;14.00;99.90
21184;DHT22;18176;49.502;11.754;2022-10-16T05:07:17;14.00;99.90
21184;DHT22;18176;49.502;11.754;2022-10-16T05:11:17;14.00;99.90
21184;DHT22;18176;49.502;11.754;2022-10-16T05:15:20;14.00;99.90
21184;DHT22;18176;49.502;11.754;2022-10-16T05:19:21;14.00;99.90
21184;DHT22;18176;49.502;11.754;2022-10-16T05:23:24;14.00;99.90
21184;DHT22;18176;49.502;11.754;2022-10-16T05:27:24;13.90;99.90
21184;DHT22;18176;49.502;11.754;2022-10-16T05:31:27;13.90;99.90
21184;DHT22;18176;49.502;11.754;2022-10-16T05:35:27;13.90;99.90
21184;DHT22;18176;49.502;11.754;2022-10-16T05:39:28;13.90;99.90
21184;DHT22;18176;49.502;11.754;2022-10-16T05:43:28;13.80;99.90
21184;DHT22;18176;49.502;11.754;2022-10-16T05:47:32;13.90;99.90
21184;DHT22;18176;49.502;11.754;2022-10-16T05:51:32;13.90;99.90
21184;DHT22;18176;49.502;11.754;2022-10-16T05:55:32;13.80;99.90
21184;DHT22;18176;49.502;11.754;2022-10-16T05:59:32;13.80;99.90
21184;DHT22;18176;49.502;11.754;2022-10-16T06:03:35;13.90;99.90
21184;DHT22;18176;49.502;11.754;2022-10-16T06:07:35;13.80;99.90
21184;DHT22;18176;49.502;11.754;2022-10-16T06:11:36;13.80;99.90
21184;DHT22;18176;49.502;11.754;2022-10-16T06:15:37;13.80;99.90
21184;DHT22;18176;49.502;11.754;2022-10-16T06:19:41;13.70;99.90
21184;DHT22;18176;49.502;11.754;2022-10-16T06:23:41;13.70;99.90
21184;DHT22;18176;49.502;11.754;2022-10-16T06:27:42;13.90;99.90
21184;DHT22;18176;49.502;11.754;2022-10-16T06:31:43;13.90;99.90
21184;DHT22;18176;49.502;11.754;2022-10-16T06:35:46;14.00;99.90
21184;DHT22;18176;49.502;11.754;2022-10-16T06:39:46;13.90;99.90
21184;DHT22;18176;49.502;11.754;2022-10-16T06:43:46;14.10;99.90
21184;DHT22;18176;49.502;11.754;2022-10-16T06:47:47;14.20;99.90
21184;DHT22;18176;49.502;11.754;2022-10-16T06:51:49;14.50;99.90
21184;DHT22;18176;49.502;11.754;2022-10-16T06:55:50;14.80;99.90
21184;DHT22;18176;49.502;11.754;2022-10-16T06:59:50;15.10;99.90
21184;DHT22;18176;49.502;11.754;2022-10-16T07:03:51;15.30;99.90
21184;DHT22;18176;49.502;11.754;2022-10-16T07:07:54;15.70;99.90
21184;DHT22;18176;49.502;11.754;2022-10-16T07:11:54;15.80;99.90
21184;DHT22;18176;49.502;11.754;2022-10-16T07:15:55;15.80;99.90
21184;DHT22;18176;49.502;11.754;2022-10-16T07:19:55;15.80;99.90
21184;DHT22;18176;49.502;11.754;2022-10-16T07:23:59;16.10;99.90
21184;DHT22;18176;49.502;11.754;2022-10-16T07:28:00;16.60;99.90
21184;DHT22;18176;49.502;11.754;2022-10-16T07:32:01;16.80;99.90
21184;DHT22;18176;49.502;11.754;2022-10-16T07:36:02;16.80;99.90
21184;DHT22;18176;49.502;11.754;2022-10-16T07:40:07;16.80;99.90
21184;DHT22;18176;49.502;11.754;2022-10-16T07:44:08;16.70;99.90
21184;DHT22;18176;49.502;11.754;2022-10-16T07:48:08;16.50;99.90
21184;DHT22;18176;49.502;11.754;2022-10-16T07:52:08;16.30;99.90
21184;DHT22;18176;49.502;11.754;2022-10-16T07:56:12;16.40;99.90
21184;DHT22;18176;49.502;11.754;2022-10-16T08:00:13;16.50;99.90
21184;DHT22;18176;49.502;11.754;2022-10-16T08:04:13;16.50;99.90
21184;DHT22;18176;49.502;11.754;2022-10-16T08:08:14;16.40;99.90
21184;DHT22;18176;49.502;11.754;2022-10-16T08:12:18;16.50;99.90
21184;DHT22;18176;49.502;11.754;2022-10-16T08:16:18;16.80;99.90
21184;DHT22;18176;49.502;11.754;2022-10-16T08:20:18;17.00;99.90
21184;DHT22;18176;49.502;11.754;2022-10-16T08:24:18;17.00;99.90
21184;DHT22;18176;49.502;11.754;2022-10-16T08:28:22;17.00;99.90
21184;DHT22;18176;49.502;11.754;2022-10-16T08:32:23;17.00;99.90
21184;DHT22;18176;49.502;11.754;2022-10-16T08:36:23;17.00;99.90
21184;DHT22;18176;49.502;11.754;2022-10-16T08:40:25;17.20;99.90
21184;DHT22;18176;49.502;11.754;2022-10-16T08:45:01;17.40;99.90
21184;DHT22;18176;49.502;11.754;2022-10-16T08:49:16;17.40;99.90
21184;DHT22;18176;49.502;11.754;2022-10-16T08:53:20;17.50;99.90
21184;DHT22;18176;49.502;11.754;2022-10-16T08:57:25;17.80;99.90
21184;DHT22;18176;49.502;11.754;2022-10-16T09:01:38;18.00;99.90
21184;DHT22;18176;49.502;11.754;2022-10-16T09:05:52;18.40;99.90
21184;DHT22;18176;49.502;11.754;2022-10-16T09:10:15;18.50;99.90
21184;DHT22;18176;49.502;11.754;2022-10-16T09:14:43;18.20;99.90
21184;DHT22;18176;49.502;11.754;2022-10-16T09:19:04;18.00;99.90
21184;DHT22;18176;49.502;11.754;2022-10-16T09:23:16;18.10;99.90
21184;DHT22;18176;49.502;11.754;2022-10-16T09:27:17;18.60;99.90
21184;DHT22;18176;49.502;11.754;2022-10-16T09:31:19;19.00;99.90
21184;DHT22;18176;49.502;11.754;2022-10-16T09:35:35;19.40;99.90
21184;DHT22;18176;49.502;11.754;2022-10-16T09:39:44;19.80;99.90
21184;DHT22;18176;49.502;11.754;2022-10-16T09:43:49;20.40;99.90
21184;DHT22;18176;49.502;11.754;2022-10-16T09:47:53;20.80;99.90
21184;DHT22;18176;49.502;11.754;2022-10-16T09:52:10;21.00;99.90
21184;DHT22;18176;49.502;11.754;2022-10-16T09:56:21;20.90;99.90
21184;DHT22;18176;49.502;11.754;2022-10-16T10:00:24;22.00;99.90
21184;DHT22;18176;49.502;11.754;2022-10-16T10:04:25;22.80;99.90
21184;DHT22;18176;49.502;11.754;2022-10-16T10:08:27;23.80;99.90
21184;DHT22;18176;49.502;11.754;2022-10-16T10:12:29;23.70;99.90
21184;DHT22;18176;49.502;11.754;2022-10-16T10:16:33;22.80;99.90
21184;DHT22;18176;49.502;11.754;2022-10-16T10:20:36;22.10;99.90
21184;DHT22;18176;49.502;11.754;2022-10-16T10:24:40;21.80;99.90
21184;DHT22;18176;49.502;11.754;2022-10-16T10:28:53;21.40;99.90
21184;DHT22;18176;49.502;11.754;2022-10-16T10:33:17;20.80;99.90
21184;DHT22;18176;49.502;11.754;2022-10-16T10:37:37;20.70;99.90
21184;DHT22;18176;49.502;11.754;2022-10-16T10:42:15;20.60;99.90
21184;DHT22;18176;49.502;11.754;2022-10-16T10:46:32;20.70;99.90
21184;DHT22;18176;49.502;11.754;2022-10-16T10:50:43;20.90;99.90
21184;DHT22;18176;49.502;11.754;2022-10-16T10:54:51;21.20;99.90
21184;DHT22;18176;49.502;11.754;2022-10-16T10:59:06;21.20;99.90
21184;DHT22;18176;49.502;11.754;2022-10-16T11:03:42;21.30;99.90
21184;DHT22;18176;49.502;11.754;2022-10-16T11:07:58;22.20;99.90
21184;DHT22;18176;49.502;11.754;2022-10-16T11:12:04;22.60;99.90
21184;DHT22;18176;49.502;11.754;2022-10-16T11:16:17;22.60;99.90
21184;DHT22;18176;49.502;11.754;2022-10-16T11:20:24;22.40;99.90
21184;DHT22;18176;49.502;11.754;2022-10-16T11:24:36;22.80;99.90
21184;DHT22;18176;49.502;11.754;2022-10-16T11:28:45;23.50;99.90
21184;DHT22;18176;49.502;11.754;2022-10-16T11:33:00;24.10;99.90
21184;DHT22;18176;49.502;11.754;2022-10-16T11:37:12;24.00;99.90
21184;DHT22;18176;49.502;11.754;2022-10-16T11:41:24;24.00;99.90
21184;DHT22;18176;49.502;11.754;2022-10-16T11:45:34;24.30;99.90
21184;DHT22;18176;49.502;11.754;2022-10-16T11:49:44;24.10;99.90
21184;DHT22;18176;49.502;11.754;2022-10-16T11:53:53;23.70;99.90
21184;DHT22;18176;49.502;11.754;2022-10-16T11:58:02;23.60;99.90
21184;DHT22;18176;49.502;11.754;2022-10-16T12:02:24;23.30;99.90
21184;DHT22;18176;49.502;11.754;2022-10-16T12:06:37;23.60;99.90
21184;DHT22;18176;49.502;11.754;2022-10-16T12:10:44;24.10;99.90
21184;DHT22;18176;49.502;11.754;2022-10-16T12:14:46;24.30;99.90
21184;DHT22;18176;49.502;11.754;2022-10-16T12:19:12;24.50;99.90
21184;DHT22;18176;49.502;11.754;2022-10-16T12:23:20;24.40;99.90
21184;DHT22;18176;49.502;11.754;2022-10-16T12:27:27;24.50;99.90
21184;DHT22;18176;49.502;11.754;2022-10-16T12:31:37;24.50;99.90
21184;DHT22;18176;49.502;11.754;2022-10-16T12:35:54;24.20;99.90
21184;DHT22;18176;49.502;11.754;2022-10-16T12:39:59;24.70;99.90
21184;DHT22;18176;49.502;11.754;2022-10-16T12:44:22;25.20;99.90
21184;DHT22;18176;49.502;11.754;2022-10-16T12:48:23;27.10;99.90
21184;DHT22;18176;49.502;11.754;2022-10-16T12:52:43;28.30;99.90
21184;DHT22;18176;49.502;11.754;2022-10-16T12:56:55;28.80;99.90
21184;DHT22;18176;49.502;11.754;2022-10-16T13:01:10;28.20;99.90
21184;DHT22;18176;49.502;11.754;2022-10-16T13:05:35;28.20;99.90
21184;DHT22;18176;49.502;11.754;2022-10-16T13:09:54;27.50;99.90
21184;DHT22;18176;49.502;11.754;2022-10-16T13:14:32;27.10;99.90
21184;DHT22;18176;49.502;11.754;2022-10-16T13:18:59;27.30;99.90
21184;DHT22;18176;49.502;11.754;2022-10-16T13:23:16;27.80;99.90
21184;DHT22;18176;49.502;11.754;2022-10-16T13:27:33;27.60;99.90
21184;DHT22;18176;49.502;11.754;2022-10-16T13:31:43;27.20;99.90
21184;DHT22;18176;49.502;11.754;2022-10-16T13:35:49;27.10;99.90
21184;DHT22;18176;49.502;11.754;2022-10-16T13:39:51;26.40;99.90
21184;DHT22;18176;49.502;11.754;2022-10-16T13:44:01;26.10;99.90
21184;DHT22;18176;49.502;11.754;2022-10-16T13:48:06;25.80;99.90
21184;DHT22;18176;49.502;11.754;2022-10-16T13:52:17;25.20;99.90
21184;DHT22;18176;49.502;11.754;2022-10-16T13:56:21;25.30;99.90
21184;DHT22;18176;49.502;11.754;2022-10-16T14:00:26;25.30;99.90
21184;DHT22;18176;49.502;11.754;2022-10-16T14:04:33;25.20;99.90
21184;DHT22;18176;49.502;11.754;2022-10-16T14:08:43;25.50;99.90
21184;DHT22;18176;49.502;11.754;2022-10-16T14:12:54;25.70;99.90
21184;DHT22;18176;49.502;11.754;2022-10-16T14:16:56;26.00;99.90
21184;DHT22;18176;49.502;11.754;2022-10-16T14:21:06;26.10;99.90
21184;DHT22;18176;49.502;11.754;2022-10-16T14:25:25;25.80;99.90
21184;DHT22;18176;49.502;11.754;2022-10-16T14:29:28;26.30;99.90
21184;DHT22;18176;49.502;11.754;2022-10-16T14:33:33;27.30;99.90
21184;DHT22;18176;49.502;11.754;2022-10-16T14:37:36;27.90;99.90
21184;DHT22;18176;49.502;11.754;2022-10-16T14:41:43;28.60;99.90
21184;DHT22;18176;49.502;11.754;2022-10-16T14:45:50;28.90;99.90
21184;DHT22;18176;49.502;11.754;2022-10-16T14:49:53;28.90;99.90
21184;DHT22;18176;49.502;11.754;2022-10-16T14:53:58;28.40;99.90
21184;DHT22;18176;49.502;11.754;2022-10-16T14:57:58;28.20;99.90
21184;DHT22;18176;49.502;11.754;2022-10-16T15:01:58;28.10;99.90
21184;DHT22;18176;49.502;11.754;2022-10-16T15:06:00;28.10;99.90
21184;DHT22;18176;49.502;11.754;2022-10-16T15:10:03;28.40;99.90
21184;DHT22;18176;49.502;11.754;2022-10-16T15:14:04;28.30;99.90
21184;DHT22;18176;49.502;11.754;2022-10-16T15:18:05;27.60;99.90
21184;DHT22;18176;49.502;11.754;2022-10-16T15:22:05;26.50;99.90
21184;DHT22;18176;49.502;11.754;2022-10-16T15:26:08;25.50;99.90
21184;DHT22;18176;49.502;11.754;2022-10-16T15:30:09;24.80;99.90
21184;DHT22;18176;49.502;11.754;2022-10-16T15:34:10;23.90;99.90
21184;DHT22;18176;49.502;11.754;2022-10-16T15:38:12;23.30;99.90
21184;DHT22;18176;49.502;11.754;2022-10-16T15:42:15;22.80;99.90
21184;DHT22;18176;49.502;11.754;2022-10-16T15:46:18;22.30;99.90
21184;DHT22;18176;49.502;11.754;2022-10-16T15:50:19;21.90;99.90
21184;DHT22;18176;49.502;11.754;2022-10-16T15:54:19;21.50;99.90
21184;DHT22;18176;49.502;11.754;2022-10-16T15:58:23;21.20;99.90
21184;DHT22;18176;49.502;11.754;2022-10-16T16:02:23;21.00;99.90
21184;DHT22;18176;49.502;11.754;2022-10-16T16:06:24;20.90;99.90
21184;DHT22;18176;49.502;11.754;2022-10-16T16:10:24;21.00;99.90
21184;DHT22;18176;49.502;11.754;2022-10-16T16:14:28;20.90;99.90
21184;DHT22;18176;49.502;11.754;2022-10-16T16:18:28;20.80;99.90
21184;DHT22;18176;49.502;11.754;2022-10-16T16:22:28;20.40;99.90
21184;DHT22;18176;49.502;11.754;2022-10-16T16:26:30;20.30;99.90
21184;DHT22;18176;49.502;11.754;2022-10-16T16:30:35;20.40;99.90
21184;DHT22;18176;49.502;11.754;2022-10-16T16:34:35;20.80;99.90
21184;DHT22;18176;49.502;11.754;2022-10-16T16:38:36;21.00;99.90
21184;DHT22;18176;49.502;11.754;2022-10-16T16:42:36;21.10;99.90
21184;DHT22;18176;49.502;11.754;2022-10-16T16:46:38;21.20;99.90
21184;DHT22;18176;49.502;11.754;2022-10-16T16:50:39;21.00;99.90
21184;DHT22;18176;49.502;11.754;2022-10-16T16:54:39;20.70;99.90
21184;DHT22;18176;49.502;11.754;2022-10-16T16:58:40;20.40;99.90
21184;DHT22;18176;49.502;11.754;2022-10-16T17:02:43;20.20;99.90
21184;DHT22;18176;49.502;11.754;2022-10-16T17:06:47;20.00;99.90
21184;DHT22;18176;49.502;11.754;2022-10-16T17:10:47;19.90;99.90
21184;DHT22;18176;49.502;11.754;2022-10-16T17:14:51;19.60;99.90
21184;DHT22;18176;49.502;11.754;2022-10-16T17:18:54;19.40;99.90
21184;DHT22;18176;49.502;11.754;2022-10-16T17:22:54;19.20;99.90
21184;DHT22;18176;49.502;11.754;2022-10-16T17:26:54;19.10;99.90
21184;DHT22;18176;49.502;11.754;2022-10-16T17:30:54;19.00;99.90
21184;DHT22;18176;49.502;11.754;2022-10-16T17:34:57;18.70;99.90
21184;DHT22;18176;49.502;11.754;2022-10-16T17:38:58;18.50;99.90
21184;DHT22;18176;49.502;11.754;2022-10-16T17:43:01;18.40;99.90
21184;DHT22;18176;49.502;11.754;2022-10-16T17:47:01;18.40;99.90
21184;DHT22;18176;49.502;11.754;2022-10-16T17:51:06;18.30;99.90
21184;DHT22;18176;49.502;11.754;2022-10-16T17:55:07;18.20;99.90
21184;DHT22;18176;49.502;11.754;2022-10-16T17:59:09;18.10;99.90
21184;DHT22;18176;49.502;11.754;2022-10-16T18:03:10;18.00;99.90
21184;DHT22;18176;49.502;11.754;2022-10-16T18:07:13;17.90;99.90
21184;DHT22;18176;49.502;11.754;2022-10-16T18:11:13;17.90;99.90
21184;DHT22;18176;49.502;11.754;2022-10-16T18:15:14;17.80;99.90
21184;DHT22;18176;49.502;11.754;2022-10-16T18:19:14;17.70;99.90
21184;DHT22;18176;49.502;11.754;2022-10-16T18:23:17;17.60;99.90
21184;DHT22;18176;49.502;11.754;2022-10-16T18:27:18;17.50;99.90
21184;DHT22;18176;49.502;11.754;2022-10-16T18:31:19;17.50;99.90
21184;DHT22;18176;49.502;11.754;2022-10-16T18:35:22;17.40;99.90
21184;DHT22;18176;49.502;11.754;2022-10-16T18:39:25;17.40;99.90
21184;DHT22;18176;49.502;11.754;2022-10-16T18:43:26;17.40;99.90
21184;DHT22;18176;49.502;11.754;2022-10-16T18:47:27;17.40;99.90
21184;DHT22;18176;49.502;11.754;2022-10-16T18:51:29;17.30;99.90
21184;DHT22;18176;49.502;11.754;2022-10-16T18:55:33;17.30;99.90
21184;DHT22;18176;49.502;11.754;2022-10-16T18:59:33;17.20;99.90
21184;DHT22;18176;49.502;11.754;2022-10-16T19:03:35;17.20;99.90
21184;DHT22;18176;49.502;11.754;2022-10-16T19:07:37;17.20;99.90
21184;DHT22;18176;49.502;11.754;2022-10-16T19:11:43;17.20;99.90
21184;DHT22;18176;49.502;11.754;2022-10-16T19:15:43;17.20;99.90
21184;DHT22;18176;49.502;11.754;2022-10-16T19:19:54;17.10;99.90
21184;DHT22;18176;49.502;11.754;2022-10-16T19:23:59;17.10;99.90
21184;DHT22;18176;49.502;11.754;2022-10-16T19:28:03;17.00;99.90
21184;DHT22;18176;49.502;11.754;2022-10-16T19:32:05;17.00;99.90
21184;DHT22;18176;49.502;11.754;2022-10-16T19:36:09;17.00;99.90
21184;DHT22;18176;49.502;11.754;2022-10-16T19:40:10;17.00;99.90
21184;DHT22;18176;49.502;11.754;2022-10-16T19:44:15;17.00;99.90
21184;DHT22;18176;49.502;11.754;2022-10-16T19:48:16;16.90;99.90
21184;DHT22;18176;49.502;11.754;2022-10-16T19:52:38;16.80;99.90
21184;DHT22;18176;49.502;11.754;2022-10-16T19:56:39;16.70;99.90
21184;DHT22;18176;49.502;11.754;2022-10-16T20:00:43;16.60;99.90
21184;DHT22;18176;49.502;11.754;2022-10-16T20:04:43;16.40;99.90
21184;DHT22;18176;49.502;11.754;2022-10-16T20:08:44;16.30;99.90
21184;DHT22;18176;49.502;11.754;2022-10-16T20:12:47;16.00;99.90
21184;DHT22;18176;49.502;11.754;2022-10-16T20:16:50;15.90;99.90
21184;DHT22;18176;49.502;11.754;2022-10-16T20:20:52;15.70;99.90
21184;DHT22;18176;49.502;11.754;2022-10-16T20:24:52;15.60;99.90
21184;DHT22;18176;49.502;11.754;2022-10-16T20:28:53;15.50;99.90
21184;DHT22;18176;49.502;11.754;2022-10-16T20:32:56;15.50;99.90
21184;DHT22;18176;49.502;11.754;2022-10-16T20:36:56;15.40;99.90
21184;DHT22;18176;49.502;11.754;2022-10-16T20:41:02;15.40;99.90
21184;DHT22;18176;49.502;11.754;2022-10-16T20:45:04;15.30;99.90
21184;DHT22;18176;49.502;11.754;2022-10-16T20:49:09;15.20;99.90
21184;DHT22;18176;49.502;11.754;2022-10-16T20:53:32;15.20;99.90
21184;DHT22;18176;49.502;11.754;2022-10-16T20:57:35;15.10;99.90
21184;DHT22;18176;49.502;11.754;2022-10-16T21:01:35;15.00;99.90
21184;DHT22;18176;49.502;11.754;2022-10-16T21:05:41;14.90;99.90
21184;DHT22;18176;49.502;11.754;2022-10-16T21:09:42;14.80;99.90
21184;DHT22;18176;49.502;11.754;2022-10-16T21:13:43;14.70;99.90
21184;DHT22;18176;49.502;11.754;2022-10-16T21:17:43;14.60;99.90
21184;DHT22;18176;49.502;11.754;2022-10-16T21:21:50;14.50;99.90
21184;DHT22;18176;49.502;11.754;2022-10-16T21:25:53;14.50;99.90
21184;DHT22;18176;49.502;11.754;2022-10-16T21:29:53;14.40;99.90
21184;DHT22;18176;49.502;11.754;2022-10-16T21:33:53;14.40;99.90
21184;DHT22;18176;49.502;11.754;2022-10-16T21:37:56;14.30;99.90
21184;DHT22;18176;49.502;11.754;2022-10-16T21:41:57;14.30;99.90
21184;DHT22;18176;49.502;11.754;2022-10-16T21:45:57;14.20;99.90
21184;DHT22;18176;49.502;11.754;2022-10-16T21:49:57;14.20;99.90
21184;DHT22;18176;49.502;11.754;2022-10-16T21:54:00;14.20;99.90
21184;DHT22;18176;49.502;11.754;2022-10-16T21:58:02;14.20;99.90
21184;DHT22;18176;49.502;11.754;2022-10-16T22:02:03;14.20;99.90
21184;DHT22;18176;49.502;11.754;2022-10-16T22:06:05;14.10;99.90
21184;DHT22;18176;49.502;11.754;2022-10-16T22:10:09;14.00;99.90
21184;DHT22;18176;49.502;11.754;2022-10-16T22:14:11;14.00;99.90
21184;DHT22;18176;49.502;11.754;2022-10-16T22:18:12;13.90;99.90
21184;DHT22;18176;49.502;11.754;2022-10-16T22:22:13;13.80;99.90
21184;DHT22;18176;49.502;11.754;2022-10-16T22:26:15;13.80;99.90
21184;DHT22;18176;49.502;11.754;2022-10-16T22:30:15;13.80;99.90
21184;DHT22;18176;49.502;11.754;2022-10-16T22:34:16;13.70;99.90
21184;DHT22;18176;49.502;11.754;2022-10-16T22:38:16;13.70;99.90
21184;DHT22;18176;49.502;11.754;2022-10-16T22:42:19;13.60;99.90
21184;DHT22;18176;49.502;11.754;2022-10-16T22:46:21;13.60;99.90
21184;DHT22;18176;49.502;11.754;2022-10-16T22:50:22;13.50;99.90
21184;DHT22;18176;49.502;11.754;2022-10-16T22:54:22;13.40;99.90
21184;DHT22;18176;49.502;11.754;2022-10-16T22:58:25;13.40;99.90
21184;DHT22;18176;49.502;11.754;2022-10-16T23:02:25;13.30;99.90
21184;DHT22;18176;49.502;11.754;2022-10-16T23:06:26;13.20;99.90
21184;DHT22;18176;49.502;11.754;2022-10-16T23:10:26;13.10;99.90
21184;DHT22;18176;49.502;11.754;2022-10-16T23:14:29;13.00;99.90
21184;DHT22;18176;49.502;11.754;2022-10-16T23:18:29;13.00;99.90
21184;DHT22;18176;49.502;11.754;2022-10-16T23:22:30;12.90;99.90
21184;DHT22;18176;49.502;11.754;2022-10-16T23:26:30;13.00;99.90
21184;DHT22;18176;49.502;11.754;2022-10-16T23:30:37;12.90;99.90
21184;DHT22;18176;49.502;11.754;2022-10-16T23:34:37;12.90;99.90
21184;DHT22;18176;49.502;11.754;2022-10-16T23:38:38;13.00;99.90
21184;DHT22;18176;49.502;11.754;2022-10-16T23:42:39;13.00;99.90
21184;DHT22;18176;49.502;11.754;2022-10-16T23:46:41;13.00;99.90
21184;DHT22;18176;49.502;11.754;2022-10-16T23:50:41;13.00;99.90
21184;DHT22;18176;49.502;11.754;2022-10-16T23:54:42;13.00;99.90
21184;DHT22;18176;49.502;11.754;2022-10-16T23:58:42;12.90;99.90
